Airfield :
LOGIN :

Register | Disclaimer

   EN    FR    IT 

 










Legend :    VFR   Marginal VFR   IFR   Intensive IFR   Very Intensive IFR
Visi :
Ceiling :
>= 8 km
>= 3000ft
5 to 8 km
1000 to 3000 ft
1500m to 5 km
500 to 1000 ft
800 to 1500m
200 to 500 ft
< 800m
< 200 ft
Symbols :   Thunderstorms  Fog  Heavy snow  Heavy precipitations  Wind > 20 kt
SIGMETs :     Misc.  Thunderstorms  Icing  Turbulence  Mountain Waves  Volcanic Ashes






- Airport Elevation : 0 ft
- IATA code : SOG


ENSG - Sogndal

CURRENT METAR :
  • 191550Z VRB02KT 9999 VCFG FEW/// BKN008 M01/M01 Q1008 RMK WIND 3806FT 29014KT

EXPIRED METARs :
  • 191520Z VRB02KT 9999 VCFG FEW/// BKN007 M01/M01 Q1008 RMK WIND 3806FT 29012KT
  • 191450Z 22003KT 9999 5000W VCFG FEW/// BKN007 M01/M01 Q1007 RMK WIND 3806FT 28012KT
  • 191420Z 22003KT 3000 1000W FZFG FEW/// VV005 M01/M01 Q1007 RMK WIND 3806FT 28015KT
  • 191350Z 21003KT 0700 FZFG FEW/// VV003 M01/M01 Q1007 RMK WIND 3806FT 28017KT
  • 191320Z 22003KT 1200 VCFG FEW/// VV005 M01/M01 Q1007 RMK WIND 3806FT 28014KT

TAF N/A



MET'MAP, your aeronautical weather chart ! - Copyright ORBIFLY December 2007 - Disclaimer

ORBIFLY MET'MAP TEAM :

Programming & Development : Alexandra Zaïnal
Concept & Development : Baudouin d'Aumeries
Co-Development & Prog : Marc-Olivier Méhu
Technical & hardware support : Manuel Goepfert

Contact : metmap@orbifly.com




SOURCES & CREDITS :

   NOAA